sensor_id;sensor_type;location;lat;lon;timestamp;P1;durP1;ratioP1;P2;durP2;ratioP2
19782;SDS011;10051;40.294;-3.754;2023-06-19T00:00:56;6.70;;;4.30;;
19782;SDS011;10051;40.294;-3.754;2023-06-19T00:03:22;7.88;;;4.80;;
19782;SDS011;10051;40.294;-3.754;2023-06-19T00:05:47;8.32;;;4.25;;
19782;SDS011;10051;40.294;-3.754;2023-06-19T00:08:13;7.75;;;4.45;;
19782;SDS011;10051;40.294;-3.754;2023-06-19T00:10:38;8.35;;;4.50;;
19782;SDS011;10051;40.294;-3.754;2023-06-19T00:13:04;8.15;;;4.80;;
19782;SDS011;10051;40.294;-3.754;2023-06-19T00:15:29;8.30;;;4.50;;
19782;SDS011;10051;40.294;-3.754;2023-06-19T00:17:57;8.05;;;4.88;;
19782;SDS011;10051;40.294;-3.754;2023-06-19T00:20:23;6.75;;;4.40;;
19782;SDS011;10051;40.294;-3.754;2023-06-19T00:22:49;7.72;;;4.70;;
19782;SDS011;10051;40.294;-3.754;2023-06-19T00:25:17;10.23;;;4.70;;
19782;SDS011;10051;40.294;-3.754;2023-06-19T00:27:44;8.73;;;4.57;;
19782;SDS011;10051;40.294;-3.754;2023-06-19T00:30:10;8.13;;;4.82;;
19782;SDS011;10051;40.294;-3.754;2023-06-19T00:32:36;9.45;;;4.97;;
19782;SDS011;10051;40.294;-3.754;2023-06-19T00:35:11;9.68;;;5.00;;
19782;SDS011;10051;40.294;-3.754;2023-06-19T00:37:38;8.27;;;4.90;;
19782;SDS011;10051;40.294;-3.754;2023-06-19T00:40:04;11.07;;;5.47;;
19782;SDS011;10051;40.294;-3.754;2023-06-19T00:42:33;8.85;;;5.10;;
19782;SDS011;10051;40.294;-3.754;2023-06-19T00:44:58;8.85;;;5.03;;
19782;SDS011;10051;40.294;-3.754;2023-06-19T00:47:24;7.80;;;4.95;;
19782;SDS011;10051;40.294;-3.754;2023-06-19T00:49:50;7.20;;;4.93;;
19782;SDS011;10051;40.294;-3.754;2023-06-19T00:52:16;7.90;;;4.78;;
19782;SDS011;10051;40.294;-3.754;2023-06-19T00:54:42;7.90;;;5.00;;
19782;SDS011;10051;40.294;-3.754;2023-06-19T00:57:09;8.15;;;5.05;;
19782;SDS011;10051;40.294;-3.754;2023-06-19T00:59:35;7.78;;;5.10;;
19782;SDS011;10051;40.294;-3.754;2023-06-19T01:02:01;8.45;;;5.10;;
19782;SDS011;10051;40.294;-3.754;2023-06-19T01:04:27;8.35;;;5.10;;
19782;SDS011;10051;40.294;-3.754;2023-06-19T01:09:36;10.52;;;5.13;;
19782;SDS011;10051;40.294;-3.754;2023-06-19T01:12:11;8.55;;;5.25;;
19782;SDS011;10051;40.294;-3.754;2023-06-19T01:14:50;8.20;;;4.97;;
19782;SDS011;10051;40.294;-3.754;2023-06-19T01:17:28;9.95;;;5.30;;
19782;SDS011;10051;40.294;-3.754;2023-06-19T01:19:57;9.07;;;5.13;;
19782;SDS011;10051;40.294;-3.754;2023-06-19T01:22:30;7.38;;;5.10;;
19782;SDS011;10051;40.294;-3.754;2023-06-19T01:24:56;8.77;;;5.15;;
19782;SDS011;10051;40.294;-3.754;2023-06-19T01:27:25;10.32;;;5.00;;
19782;SDS011;10051;40.294;-3.754;2023-06-19T01:29:56;8.93;;;5.47;;
19782;SDS011;10051;40.294;-3.754;2023-06-19T01:32:31;10.50;;;6.13;;
19782;SDS011;10051;40.294;-3.754;2023-06-19T01:34:57;10.43;;;5.78;;
19782;SDS011;10051;40.294;-3.754;2023-06-19T01:37:25;9.32;;;5.90;;
19782;SDS011;10051;40.294;-3.754;2023-06-19T01:39:54;11.98;;;6.10;;
19782;SDS011;10051;40.294;-3.754;2023-06-19T01:42:22;9.48;;;6.13;;
19782;SDS011;10051;40.294;-3.754;2023-06-19T01:44:49;10.45;;;6.10;;
19782;SDS011;10051;40.294;-3.754;2023-06-19T01:47:15;11.45;;;5.82;;
19782;SDS011;10051;40.294;-3.754;2023-06-19T01:49:45;12.43;;;7.40;;
19782;SDS011;10051;40.294;-3.754;2023-06-19T01:52:11;19.40;;;11.90;;
19782;SDS011;10051;40.294;-3.754;2023-06-19T01:54:38;14.80;;;9.05;;
19782;SDS011;10051;40.294;-3.754;2023-06-19T01:57:04;10.18;;;6.57;;
19782;SDS011;10051;40.294;-3.754;2023-06-19T01:59:30;8.25;;;5.45;;
19782;SDS011;10051;40.294;-3.754;2023-06-19T02:01:55;9.18;;;5.82;;
19782;SDS011;10051;40.294;-3.754;2023-06-19T02:04:21;10.75;;;5.28;;
19782;SDS011;10051;40.294;-3.754;2023-06-19T02:06:46;7.60;;;5.20;;
19782;SDS011;10051;40.294;-3.754;2023-06-19T02:09:12;9.32;;;5.65;;
19782;SDS011;10051;40.294;-3.754;2023-06-19T02:11:38;12.23;;;5.45;;
19782;SDS011;10051;40.294;-3.754;2023-06-19T02:14:03;9.35;;;5.28;;
19782;SDS011;10051;40.294;-3.754;2023-06-19T02:16:29;12.15;;;5.40;;
19782;SDS011;10051;40.294;-3.754;2023-06-19T02:18:54;12.10;;;5.57;;
19782;SDS011;10051;40.294;-3.754;2023-06-19T02:21:21;8.05;;;5.45;;
19782;SDS011;10051;40.294;-3.754;2023-06-19T02:23:47;9.90;;;5.55;;
19782;SDS011;10051;40.294;-3.754;2023-06-19T02:26:12;9.60;;;5.90;;
19782;SDS011;10051;40.294;-3.754;2023-06-19T02:28:38;23.17;;;6.32;;
19782;SDS011;10051;40.294;-3.754;2023-06-19T02:31:04;12.90;;;6.43;;
19782;SDS011;10051;40.294;-3.754;2023-06-19T02:33:32;15.05;;;6.55;;
19782;SDS011;10051;40.294;-3.754;2023-06-19T02:35:57;16.23;;;6.70;;
19782;SDS011;10051;40.294;-3.754;2023-06-19T02:38:27;14.23;;;6.50;;
19782;SDS011;10051;40.294;-3.754;2023-06-19T02:40:56;10.57;;;6.28;;
19782;SDS011;10051;40.294;-3.754;2023-06-19T02:43:26;11.57;;;6.35;;
19782;SDS011;10051;40.294;-3.754;2023-06-19T02:45:54;16.48;;;6.45;;
19782;SDS011;10051;40.294;-3.754;2023-06-19T02:48:20;11.30;;;5.90;;
19782;SDS011;10051;40.294;-3.754;2023-06-19T02:50:50;12.55;;;6.22;;
19782;SDS011;10051;40.294;-3.754;2023-06-19T02:53:16;11.48;;;6.20;;
19782;SDS011;10051;40.294;-3.754;2023-06-19T02:55:41;8.88;;;5.82;;
19782;SDS011;10051;40.294;-3.754;2023-06-19T02:58:07;12.15;;;5.85;;
19782;SDS011;10051;40.294;-3.754;2023-06-19T03:00:33;15.23;;;6.50;;
19782;SDS011;10051;40.294;-3.754;2023-06-19T03:02:58;11.95;;;6.30;;
19782;SDS011;10051;40.294;-3.754;2023-06-19T03:05:24;11.65;;;6.57;;
19782;SDS011;10051;40.294;-3.754;2023-06-19T03:07:52;9.30;;;5.57;;
19782;SDS011;10051;40.294;-3.754;2023-06-19T03:10:17;9.35;;;6.07;;
19782;SDS011;10051;40.294;-3.754;2023-06-19T03:12:43;12.23;;;5.75;;
19782;SDS011;10051;40.294;-3.754;2023-06-19T03:15:09;11.55;;;6.40;;
19782;SDS011;10051;40.294;-3.754;2023-06-19T03:17:35;11.82;;;6.03;;
19782;SDS011;10051;40.294;-3.754;2023-06-19T03:20:01;11.52;;;6.50;;
19782;SDS011;10051;40.294;-3.754;2023-06-19T03:22:26;11.98;;;6.88;;
19782;SDS011;10051;40.294;-3.754;2023-06-19T03:24:52;13.88;;;6.60;;
19782;SDS011;10051;40.294;-3.754;2023-06-19T03:27:18;11.05;;;6.25;;
19782;SDS011;10051;40.294;-3.754;2023-06-19T03:29:43;14.18;;;6.60;;
19782;SDS011;10051;40.294;-3.754;2023-06-19T03:32:09;11.90;;;6.80;;
19782;SDS011;10051;40.294;-3.754;2023-06-19T03:34:34;13.27;;;6.53;;
19782;SDS011;10051;40.294;-3.754;2023-06-19T03:37:00;13.65;;;6.80;;
19782;SDS011;10051;40.294;-3.754;2023-06-19T03:39:25;10.77;;;5.85;;
19782;SDS011;10051;40.294;-3.754;2023-06-19T03:41:51;12.18;;;7.05;;
19782;SDS011;10051;40.294;-3.754;2023-06-19T03:44:16;12.45;;;6.68;;
19782;SDS011;10051;40.294;-3.754;2023-06-19T03:46:42;12.90;;;6.65;;
19782;SDS011;10051;40.294;-3.754;2023-06-19T03:49:08;11.73;;;6.88;;
19782;SDS011;10051;40.294;-3.754;2023-06-19T03:51:34;13.70;;;7.07;;
19782;SDS011;10051;40.294;-3.754;2023-06-19T03:54:00;16.80;;;7.50;;
19782;SDS011;10051;40.294;-3.754;2023-06-19T03:56:25;16.20;;;7.72;;
19782;SDS011;10051;40.294;-3.754;2023-06-19T03:58:51;13.73;;;7.20;;
19782;SDS011;10051;40.294;-3.754;2023-06-19T04:01:17;11.68;;;6.80;;
19782;SDS011;10051;40.294;-3.754;2023-06-19T04:03:42;13.95;;;7.20;;
19782;SDS011;10051;40.294;-3.754;2023-06-19T04:06:07;13.45;;;6.88;;
19782;SDS011;10051;40.294;-3.754;2023-06-19T04:08:35;10.50;;;7.00;;
19782;SDS011;10051;40.294;-3.754;2023-06-19T04:11:01;14.05;;;7.30;;
19782;SDS011;10051;40.294;-3.754;2023-06-19T04:13:27;12.20;;;6.85;;
19782;SDS011;10051;40.294;-3.754;2023-06-19T04:15:52;13.98;;;7.45;;
19782;SDS011;10051;40.294;-3.754;2023-06-19T04:18:18;14.15;;;7.30;;
19782;SDS011;10051;40.294;-3.754;2023-06-19T04:20:44;12.95;;;7.00;;
19782;SDS011;10051;40.294;-3.754;2023-06-19T04:23:09;12.82;;;7.10;;
19782;SDS011;10051;40.294;-3.754;2023-06-19T04:25:35;14.02;;;7.57;;
19782;SDS011;10051;40.294;-3.754;2023-06-19T04:28:00;13.57;;;7.47;;
19782;SDS011;10051;40.294;-3.754;2023-06-19T04:30:29;13.80;;;7.78;;
19782;SDS011;10051;40.294;-3.754;2023-06-19T04:32:56;15.95;;;7.78;;
19782;SDS011;10051;40.294;-3.754;2023-06-19T04:35:23;13.65;;;7.45;;
19782;SDS011;10051;40.294;-3.754;2023-06-19T04:37:49;18.63;;;7.72;;
19782;SDS011;10051;40.294;-3.754;2023-06-19T04:40:14;12.02;;;7.35;;
19782;SDS011;10051;40.294;-3.754;2023-06-19T04:42:40;14.50;;;7.78;;
19782;SDS011;10051;40.294;-3.754;2023-06-19T04:45:06;11.48;;;7.00;;
19782;SDS011;10051;40.294;-3.754;2023-06-19T04:47:32;15.88;;;7.88;;
19782;SDS011;10051;40.294;-3.754;2023-06-19T04:49:59;14.00;;;7.97;;
19782;SDS011;10051;40.294;-3.754;2023-06-19T04:52:25;14.70;;;7.13;;
19782;SDS011;10051;40.294;-3.754;2023-06-19T04:54:50;14.43;;;7.40;;
19782;SDS011;10051;40.294;-3.754;2023-06-19T04:57:16;14.68;;;7.68;;
19782;SDS011;10051;40.294;-3.754;2023-06-19T04:59:42;14.27;;;7.80;;
19782;SDS011;10051;40.294;-3.754;2023-06-19T05:02:09;14.10;;;7.53;;
19782;SDS011;10051;40.294;-3.754;2023-06-19T05:04:35;14.90;;;6.78;;
19782;SDS011;10051;40.294;-3.754;2023-06-19T05:07:01;14.30;;;7.15;;
19782;SDS011;10051;40.294;-3.754;2023-06-19T05:09:28;12.43;;;7.13;;
19782;SDS011;10051;40.294;-3.754;2023-06-19T05:11:53;10.50;;;6.65;;
19782;SDS011;10051;40.294;-3.754;2023-06-19T05:14:19;10.13;;;6.80;;
19782;SDS011;10051;40.294;-3.754;2023-06-19T05:16:47;12.48;;;6.50;;
19782;SDS011;10051;40.294;-3.754;2023-06-19T05:19:13;12.45;;;6.50;;
19782;SDS011;10051;40.294;-3.754;2023-06-19T05:21:38;12.02;;;6.18;;
19782;SDS011;10051;40.294;-3.754;2023-06-19T05:24:04;11.18;;;6.47;;
19782;SDS011;10051;40.294;-3.754;2023-06-19T05:26:30;9.75;;;6.60;;
19782;SDS011;10051;40.294;-3.754;2023-06-19T05:28:55;10.77;;;6.57;;
19782;SDS011;10051;40.294;-3.754;2023-06-19T05:31:24;11.93;;;6.45;;
19782;SDS011;10051;40.294;-3.754;2023-06-19T05:33:49;12.02;;;6.63;;
19782;SDS011;10051;40.294;-3.754;2023-06-19T05:36:15;10.50;;;6.43;;
19782;SDS011;10051;40.294;-3.754;2023-06-19T05:38:40;13.23;;;6.50;;
19782;SDS011;10051;40.294;-3.754;2023-06-19T05:41:06;9.82;;;6.50;;
19782;SDS011;10051;40.294;-3.754;2023-06-19T05:43:32;13.75;;;6.57;;
19782;SDS011;10051;40.294;-3.754;2023-06-19T05:46:05;12.15;;;6.43;;
19782;SDS011;10051;40.294;-3.754;2023-06-19T05:48:31;11.82;;;6.65;;
19782;SDS011;10051;40.294;-3.754;2023-06-19T05:50:56;10.75;;;6.85;;
19782;SDS011;10051;40.294;-3.754;2023-06-19T05:53:22;10.27;;;6.68;;
19782;SDS011;10051;40.294;-3.754;2023-06-19T05:55:48;11.52;;;6.82;;
19782;SDS011;10051;40.294;-3.754;2023-06-19T05:58:13;14.07;;;7.13;;
19782;SDS011;10051;40.294;-3.754;2023-06-19T06:00:39;13.85;;;7.32;;
19782;SDS011;10051;40.294;-3.754;2023-06-19T06:03:04;12.73;;;6.63;;
19782;SDS011;10051;40.294;-3.754;2023-06-19T06:05:30;12.52;;;6.90;;
19782;SDS011;10051;40.294;-3.754;2023-06-19T06:07:56;12.45;;;7.18;;
19782;SDS011;10051;40.294;-3.754;2023-06-19T06:10:22;13.38;;;6.80;;
19782;SDS011;10051;40.294;-3.754;2023-06-19T06:12:49;10.68;;;7.13;;
19782;SDS011;10051;40.294;-3.754;2023-06-19T06:15:14;13.48;;;7.53;;
19782;SDS011;10051;40.294;-3.754;2023-06-19T06:17:41;18.77;;;7.50;;
19782;SDS011;10051;40.294;-3.754;2023-06-19T06:20:06;16.95;;;7.78;;
19782;SDS011;10051;40.294;-3.754;2023-06-19T06:22:37;12.88;;;7.60;;
19782;SDS011;10051;40.294;-3.754;2023-06-19T06:25:11;13.25;;;7.53;;
19782;SDS011;10051;40.294;-3.754;2023-06-19T06:27:36;17.38;;;7.15;;
19782;SDS011;10051;40.294;-3.754;2023-06-19T06:30:02;16.67;;;7.65;;
19782;SDS011;10051;40.294;-3.754;2023-06-19T06:32:28;11.23;;;7.28;;
19782;SDS011;10051;40.294;-3.754;2023-06-19T06:34:59;17.13;;;7.50;;
19782;SDS011;10051;40.294;-3.754;2023-06-19T06:37:24;15.65;;;7.32;;
19782;SDS011;10051;40.294;-3.754;2023-06-19T06:39:50;13.45;;;7.15;;
19782;SDS011;10051;40.294;-3.754;2023-06-19T06:42:16;20.45;;;7.72;;
19782;SDS011;10051;40.294;-3.754;2023-06-19T06:44:42;19.15;;;8.27;;
19782;SDS011;10051;40.294;-3.754;2023-06-19T06:47:08;14.23;;;7.38;;
19782;SDS011;10051;40.294;-3.754;2023-06-19T06:49:34;14.52;;;7.28;;
19782;SDS011;10051;40.294;-3.754;2023-06-19T06:52:01;10.77;;;6.70;;
19782;SDS011;10051;40.294;-3.754;2023-06-19T06:54:28;17.27;;;6.85;;
19782;SDS011;10051;40.294;-3.754;2023-06-19T06:56:54;12.32;;;7.10;;
19782;SDS011;10051;40.294;-3.754;2023-06-19T06:59:23;11.27;;;6.78;;
19782;SDS011;10051;40.294;-3.754;2023-06-19T07:01:50;8.57;;;6.53;;
19782;SDS011;10051;40.294;-3.754;2023-06-19T07:04:15;10.25;;;6.30;;
19782;SDS011;10051;40.294;-3.754;2023-06-19T07:06:41;9.48;;;6.65;;
19782;SDS011;10051;40.294;-3.754;2023-06-19T07:09:09;10.90;;;6.07;;
19782;SDS011;10051;40.294;-3.754;2023-06-19T07:11:35;11.20;;;6.18;;
19782;SDS011;10051;40.294;-3.754;2023-06-19T07:14:01;16.48;;;6.55;;
19782;SDS011;10051;40.294;-3.754;2023-06-19T07:16:27;10.75;;;6.18;;
19782;SDS011;10051;40.294;-3.754;2023-06-19T07:18:53;10.07;;;6.53;;
19782;SDS011;10051;40.294;-3.754;2023-06-19T07:21:19;11.60;;;6.45;;
19782;SDS011;10051;40.294;-3.754;2023-06-19T07:23:45;22.13;;;6.88;;
19782;SDS011;10051;40.294;-3.754;2023-06-19T07:26:11;27.00;;;8.02;;
19782;SDS011;10051;40.294;-3.754;2023-06-19T07:28:36;12.32;;;6.38;;
19782;SDS011;10051;40.294;-3.754;2023-06-19T07:31:02;12.98;;;6.90;;
19782;SDS011;10051;40.294;-3.754;2023-06-19T07:33:28;10.68;;;7.22;;
19782;SDS011;10051;40.294;-3.754;2023-06-19T07:35:57;12.25;;;7.03;;
19782;SDS011;10051;40.294;-3.754;2023-06-19T07:38:22;13.40;;;6.90;;
19782;SDS011;10051;40.294;-3.754;2023-06-19T07:40:48;11.32;;;6.97;;
19782;SDS011;10051;40.294;-3.754;2023-06-19T07:43:14;10.75;;;6.68;;
19782;SDS011;10051;40.294;-3.754;2023-06-19T07:45:40;12.77;;;7.20;;
19782;SDS011;10051;40.294;-3.754;2023-06-19T07:48:05;13.95;;;7.13;;
19782;SDS011;10051;40.294;-3.754;2023-06-19T07:50:31;13.30;;;6.78;;
19782;SDS011;10051;40.294;-3.754;2023-06-19T07:52:57;16.23;;;7.25;;
19782;SDS011;10051;40.294;-3.754;2023-06-19T07:55:23;14.32;;;7.07;;
19782;SDS011;10051;40.294;-3.754;2023-06-19T07:57:48;12.48;;;7.38;;
19782;SDS011;10051;40.294;-3.754;2023-06-19T08:00:14;11.88;;;7.00;;
19782;SDS011;10051;40.294;-3.754;2023-06-19T08:02:40;13.18;;;7.10;;
19782;SDS011;10051;40.294;-3.754;2023-06-19T08:05:07;13.45;;;7.00;;
19782;SDS011;10051;40.294;-3.754;2023-06-19T08:07:34;12.82;;;7.60;;
19782;SDS011;10051;40.294;-3.754;2023-06-19T08:10:00;17.88;;;7.90;;
19782;SDS011;10051;40.294;-3.754;2023-06-19T08:12:25;12.43;;;7.65;;
19782;SDS011;10051;40.294;-3.754;2023-06-19T08:14:51;10.18;;;6.95;;
19782;SDS011;10051;40.294;-3.754;2023-06-19T08:17:16;13.77;;;7.10;;
19782;SDS011;10051;40.294;-3.754;2023-06-19T08:19:42;11.20;;;7.80;;
19782;SDS011;10051;40.294;-3.754;2023-06-19T08:22:08;10.75;;;7.35;;
19782;SDS011;10051;40.294;-3.754;2023-06-19T08:24:34;12.95;;;7.75;;
19782;SDS011;10051;40.294;-3.754;2023-06-19T08:27:01;12.40;;;7.85;;
19782;SDS011;10051;40.294;-3.754;2023-06-19T08:29:28;18.00;;;8.23;;
19782;SDS011;10051;40.294;-3.754;2023-06-19T08:31:53;16.08;;;8.40;;
19782;SDS011;10051;40.294;-3.754;2023-06-19T08:34:19;11.38;;;7.85;;
19782;SDS011;10051;40.294;-3.754;2023-06-19T08:36:45;12.00;;;8.10;;
19782;SDS011;10051;40.294;-3.754;2023-06-19T08:39:10;11.98;;;8.30;;
19782;SDS011;10051;40.294;-3.754;2023-06-19T08:41:36;13.38;;;7.72;;
19782;SDS011;10051;40.294;-3.754;2023-06-19T08:44:04;17.13;;;8.48;;
19782;SDS011;10051;40.294;-3.754;2023-06-19T08:46:30;18.30;;;9.60;;
19782;SDS011;10051;40.294;-3.754;2023-06-19T08:48:55;15.00;;;8.60;;
19782;SDS011;10051;40.294;-3.754;2023-06-19T08:51:22;16.67;;;8.90;;
19782;SDS011;10051;40.294;-3.754;2023-06-19T08:53:48;14.93;;;8.60;;
19782;SDS011;10051;40.294;-3.754;2023-06-19T08:56:19;14.15;;;8.80;;
19782;SDS011;10051;40.294;-3.754;2023-06-19T08:58:44;15.30;;;8.35;;
19782;SDS011;10051;40.294;-3.754;2023-06-19T09:01:10;14.55;;;8.27;;
19782;SDS011;10051;40.294;-3.754;2023-06-19T09:03:36;12.48;;;7.38;;
19782;SDS011;10051;40.294;-3.754;2023-06-19T09:06:06;14.18;;;7.25;;
19782;SDS011;10051;40.294;-3.754;2023-06-19T09:08:32;11.02;;;6.60;;
19782;SDS011;10051;40.294;-3.754;2023-06-19T09:10:58;13.52;;;7.40;;
19782;SDS011;10051;40.294;-3.754;2023-06-19T09:13:26;14.23;;;7.18;;
19782;SDS011;10051;40.294;-3.754;2023-06-19T09:16:05;14.07;;;7.50;;
19782;SDS011;10051;40.294;-3.754;2023-06-19T09:18:42;11.30;;;7.47;;
19782;SDS011;10051;40.294;-3.754;2023-06-19T09:21:19;14.32;;;7.30;;
19782;SDS011;10051;40.294;-3.754;2023-06-19T09:23:47;13.50;;;7.50;;
19782;SDS011;10051;40.294;-3.754;2023-06-19T09:26:15;14.35;;;6.80;;
19782;SDS011;10051;40.294;-3.754;2023-06-19T09:28:43;11.95;;;6.85;;
19782;SDS011;10051;40.294;-3.754;2023-06-19T09:31:08;12.98;;;7.13;;
19782;SDS011;10051;40.294;-3.754;2023-06-19T09:33:34;13.32;;;7.40;;
19782;SDS011;10051;40.294;-3.754;2023-06-19T09:36:04;15.20;;;7.38;;
19782;SDS011;10051;40.294;-3.754;2023-06-19T09:38:31;11.68;;;6.85;;
19782;SDS011;10051;40.294;-3.754;2023-06-19T09:41:02;11.27;;;6.82;;
19782;SDS011;10051;40.294;-3.754;2023-06-19T09:46:06;16.65;;;7.60;;
19782;SDS011;10051;40.294;-3.754;2023-06-19T09:48:33;13.90;;;7.60;;
19782;SDS011;10051;40.294;-3.754;2023-06-19T09:51:16;11.25;;;7.53;;
19782;SDS011;10051;40.294;-3.754;2023-06-19T09:53:47;13.73;;;7.32;;
19782;SDS011;10051;40.294;-3.754;2023-06-19T09:56:15;12.30;;;6.97;;
19782;SDS011;10051;40.294;-3.754;2023-06-19T09:58:42;13.80;;;6.53;;
19782;SDS011;10051;40.294;-3.754;2023-06-19T10:01:09;13.95;;;6.65;;
19782;SDS011;10051;40.294;-3.754;2023-06-19T10:03:36;8.32;;;5.90;;
19782;SDS011;10051;40.294;-3.754;2023-06-19T10:06:02;15.18;;;6.60;;
19782;SDS011;10051;40.294;-3.754;2023-06-19T10:08:38;13.93;;;6.75;;
19782;SDS011;10051;40.294;-3.754;2023-06-19T10:11:04;9.95;;;6.43;;
19782;SDS011;10051;40.294;-3.754;2023-06-19T10:13:33;13.23;;;7.07;;
19782;SDS011;10051;40.294;-3.754;2023-06-19T10:16:05;10.75;;;6.07;;
19782;SDS011;10051;40.294;-3.754;2023-06-19T10:18:44;11.15;;;6.38;;
19782;SDS011;10051;40.294;-3.754;2023-06-19T10:21:17;11.35;;;5.93;;
19782;SDS011;10051;40.294;-3.754;2023-06-19T10:23:51;11.23;;;5.95;;
19782;SDS011;10051;40.294;-3.754;2023-06-19T10:26:19;9.32;;;5.90;;
19782;SDS011;10051;40.294;-3.754;2023-06-19T10:28:46;11.25;;;5.90;;
19782;SDS011;10051;40.294;-3.754;2023-06-19T10:31:15;13.90;;;6.35;;
19782;SDS011;10051;40.294;-3.754;2023-06-19T10:33:40;12.90;;;6.72;;
19782;SDS011;10051;40.294;-3.754;2023-06-19T10:36:19;10.50;;;5.80;;
19782;SDS011;10051;40.294;-3.754;2023-06-19T10:38:48;10.15;;;5.95;;
19782;SDS011;10051;40.294;-3.754;2023-06-19T10:41:24;8.85;;;5.80;;
19782;SDS011;10051;40.294;-3.754;2023-06-19T10:43:57;7.82;;;5.50;;
19782;SDS011;10051;40.294;-3.754;2023-06-19T10:46:23;9.52;;;5.32;;
19782;SDS011;10051;40.294;-3.754;2023-06-19T10:48:54;7.88;;;5.20;;
19782;SDS011;10051;40.294;-3.754;2023-06-19T10:51:24;9.18;;;5.60;;
19782;SDS011;10051;40.294;-3.754;2023-06-19T10:53:50;8.10;;;5.63;;
19782;SDS011;10051;40.294;-3.754;2023-06-19T10:56:19;9.25;;;4.88;;
19782;SDS011;10051;40.294;-3.754;2023-06-19T10:58:55;9.52;;;5.35;;
19782;SDS011;10051;40.294;-3.754;2023-06-19T11:01:35;13.70;;;5.40;;
19782;SDS011;10051;40.294;-3.754;2023-06-19T11:04:06;9.70;;;5.32;;
19782;SDS011;10051;40.294;-3.754;2023-06-19T11:06:33;11.68;;;5.30;;
19782;SDS011;10051;40.294;-3.754;2023-06-19T11:08:59;9.88;;;5.47;;
19782;SDS011;10051;40.294;-3.754;2023-06-19T11:12:02;10.52;;;5.10;;
19782;SDS011;10051;40.294;-3.754;2023-06-19T11:14:21;9.53;;;5.43;;
19782;SDS011;10051;40.294;-3.754;2023-06-19T11:16:47;10.70;;;5.70;;
19782;SDS011;10051;40.294;-3.754;2023-06-19T11:19:17;10.20;;;6.00;;
19782;SDS011;10051;40.294;-3.754;2023-06-19T11:21:47;8.68;;;5.15;;
19782;SDS011;10051;40.294;-3.754;2023-06-19T11:24:14;8.25;;;5.07;;
19782;SDS011;10051;40.294;-3.754;2023-06-19T11:26:41;8.95;;;5.95;;
19782;SDS011;10051;40.294;-3.754;2023-06-19T11:29:28;8.85;;;5.40;;
19782;SDS011;10051;40.294;-3.754;2023-06-19T11:32:08;10.38;;;5.97;;
19782;SDS011;10051;40.294;-3.754;2023-06-19T11:34:38;10.95;;;5.45;;
19782;SDS011;10051;40.294;-3.754;2023-06-19T11:39:40;8.82;;;5.05;;
19782;SDS011;10051;40.294;-3.754;2023-06-19T11:42:09;8.82;;;4.50;;
19782;SDS011;10051;40.294;-3.754;2023-06-19T11:44:34;7.00;;;4.82;;
19782;SDS011;10051;40.294;-3.754;2023-06-19T11:47:00;6.68;;;4.88;;
19782;SDS011;10051;40.294;-3.754;2023-06-19T11:49:27;8.18;;;4.85;;
19782;SDS011;10051;40.294;-3.754;2023-06-19T11:51:57;7.70;;;4.72;;
19782;SDS011;10051;40.294;-3.754;2023-06-19T11:54:23;12.25;;;5.40;;
19782;SDS011;10051;40.294;-3.754;2023-06-19T11:56:48;9.95;;;5.20;;
19782;SDS011;10051;40.294;-3.754;2023-06-19T11:59:14;8.07;;;5.10;;
19782;SDS011;10051;40.294;-3.754;2023-06-19T12:01:40;7.65;;;4.65;;
19782;SDS011;10051;40.294;-3.754;2023-06-19T12:04:06;6.78;;;4.45;;
19782;SDS011;10051;40.294;-3.754;2023-06-19T12:06:31;7.00;;;4.18;;
19782;SDS011;10051;40.294;-3.754;2023-06-19T12:08:57;5.32;;;4.30;;
19782;SDS011;10051;40.294;-3.754;2023-06-19T12:11:23;7.90;;;4.22;;
19782;SDS011;10051;40.294;-3.754;2023-06-19T12:13:50;8.02;;;4.10;;
19782;SDS011;10051;40.294;-3.754;2023-06-19T12:16:15;7.63;;;4.10;;
19782;SDS011;10051;40.294;-3.754;2023-06-19T12:18:41;7.93;;;4.00;;
19782;SDS011;10051;40.294;-3.754;2023-06-19T12:21:07;6.13;;;4.40;;
19782;SDS011;10051;40.294;-3.754;2023-06-19T12:23:33;13.73;;;5.25;;
19782;SDS011;10051;40.294;-3.754;2023-06-19T12:25:59;8.50;;;4.70;;
19782;SDS011;10051;40.294;-3.754;2023-06-19T12:28:25;8.35;;;4.68;;
19782;SDS011;10051;40.294;-3.754;2023-06-19T12:30:50;7.32;;;4.60;;
19782;SDS011;10051;40.294;-3.754;2023-06-19T12:33:20;9.38;;;4.97;;
19782;SDS011;10051;40.294;-3.754;2023-06-19T12:35:48;9.75;;;4.57;;
19782;SDS011;10051;40.294;-3.754;2023-06-19T12:38:14;7.57;;;4.60;;
19782;SDS011;10051;40.294;-3.754;2023-06-19T12:40:40;8.48;;;4.90;;
19782;SDS011;10051;40.294;-3.754;2023-06-19T12:43:07;9.30;;;4.82;;
19782;SDS011;10051;40.294;-3.754;2023-06-19T12:45:32;9.50;;;4.30;;
19782;SDS011;10051;40.294;-3.754;2023-06-19T12:47:58;8.18;;;4.53;;
19782;SDS011;10051;40.294;-3.754;2023-06-19T12:50:26;9.13;;;4.93;;
19782;SDS011;10051;40.294;-3.754;2023-06-19T12:52:51;12.63;;;4.70;;
19782;SDS011;10051;40.294;-3.754;2023-06-19T12:55:17;6.72;;;4.65;;
19782;SDS011;10051;40.294;-3.754;2023-06-19T12:57:43;9.13;;;4.80;;
19782;SDS011;10051;40.294;-3.754;2023-06-19T13:00:10;9.57;;;4.80;;
19782;SDS011;10051;40.294;-3.754;2023-06-19T13:02:37;9.48;;;5.20;;
19782;SDS011;10051;40.294;-3.754;2023-06-19T13:05:06;8.63;;;4.78;;
19782;SDS011;10051;40.294;-3.754;2023-06-19T13:07:32;7.00;;;4.88;;
19782;SDS011;10051;40.294;-3.754;2023-06-19T13:09:58;5.78;;;4.45;;
19782;SDS011;10051;40.294;-3.754;2023-06-19T13:12:23;9.27;;;4.40;;
19782;SDS011;10051;40.294;-3.754;2023-06-19T13:14:49;7.35;;;4.68;;
19782;SDS011;10051;40.294;-3.754;2023-06-19T13:17:14;11.65;;;4.60;;
19782;SDS011;10051;40.294;-3.754;2023-06-19T13:19:40;7.10;;;3.95;;
19782;SDS011;10051;40.294;-3.754;2023-06-19T13:22:06;5.75;;;4.30;;
19782;SDS011;10051;40.294;-3.754;2023-06-19T13:24:31;7.78;;;4.72;;
19782;SDS011;10051;40.294;-3.754;2023-06-19T13:26:57;13.32;;;4.38;;
19782;SDS011;10051;40.294;-3.754;2023-06-19T13:29:23;6.70;;;4.22;;
19782;SDS011;10051;40.294;-3.754;2023-06-19T13:31:51;13.00;;;4.18;;
19782;SDS011;10051;40.294;-3.754;2023-06-19T13:34:17;10.07;;;4.63;;
19782;SDS011;10051;40.294;-3.754;2023-06-19T13:36:43;9.65;;;4.30;;
19782;SDS011;10051;40.294;-3.754;2023-06-19T13:39:09;6.18;;;4.00;;
19782;SDS011;10051;40.294;-3.754;2023-06-19T13:41:35;6.82;;;4.13;;
19782;SDS011;10051;40.294;-3.754;2023-06-19T13:44:01;5.70;;;4.05;;
19782;SDS011;10051;40.294;-3.754;2023-06-19T13:46:27;8.18;;;4.80;;
19782;SDS011;10051;40.294;-3.754;2023-06-19T13:48:54;10.20;;;4.30;;
19782;SDS011;10051;40.294;-3.754;2023-06-19T13:51:20;11.07;;;4.45;;
19782;SDS011;10051;40.294;-3.754;2023-06-19T13:53:47;8.98;;;4.10;;
19782;SDS011;10051;40.294;-3.754;2023-06-19T13:56:12;6.25;;;4.38;;
19782;SDS011;10051;40.294;-3.754;2023-06-19T13:58:39;7.97;;;4.10;;
19782;SDS011;10051;40.294;-3.754;2023-06-19T14:01:05;9.48;;;4.47;;
19782;SDS011;10051;40.294;-3.754;2023-06-19T14:03:31;7.50;;;4.30;;
19782;SDS011;10051;40.294;-3.754;2023-06-19T14:05:57;7.70;;;3.90;;
19782;SDS011;10051;40.294;-3.754;2023-06-19T14:08:22;11.55;;;4.22;;
19782;SDS011;10051;40.294;-3.754;2023-06-19T14:10:49;12.23;;;4.10;;
19782;SDS011;10051;40.294;-3.754;2023-06-19T14:13:15;8.98;;;4.43;;
19782;SDS011;10051;40.294;-3.754;2023-06-19T14:15:41;7.45;;;4.40;;
19782;SDS011;10051;40.294;-3.754;2023-06-19T14:18:06;10.32;;;4.22;;
19782;SDS011;10051;40.294;-3.754;2023-06-19T14:20:32;7.47;;;4.00;;
19782;SDS011;10051;40.294;-3.754;2023-06-19T14:22:58;6.68;;;3.78;;
19782;SDS011;10051;40.294;-3.754;2023-06-19T14:25:23;6.63;;;4.20;;
19782;SDS011;10051;40.294;-3.754;2023-06-19T14:27:51;5.75;;;3.80;;
19782;SDS011;10051;40.294;-3.754;2023-06-19T14:30:18;7.53;;;3.80;;
19782;SDS011;10051;40.294;-3.754;2023-06-19T14:32:44;7.13;;;3.70;;